createdAt,value
2017-09-11T00:00:37.421Z,0
2017-09-11T00:01:46.252Z,0
2017-09-11T00:02:55.079Z,0
2017-09-11T00:04:03.915Z,0
2017-09-11T00:05:12.744Z,0
2017-09-11T00:06:21.572Z,0
2017-09-11T00:07:30.399Z,0
2017-09-11T00:08:39.230Z,0
2017-09-11T00:09:48.383Z,0
2017-09-11T00:10:57.214Z,0
2017-09-11T00:12:06.047Z,0
2017-09-11T00:13:14.872Z,0
2017-09-11T00:14:23.697Z,0
2017-09-11T00:15:32.535Z,0
2017-09-11T00:16:41.361Z,0
2017-09-11T00:17:50.196Z,0
2017-09-11T00:18:59.021Z,0
2017-09-11T00:20:07.849Z,0
2017-09-11T00:21:16.677Z,0
2017-09-11T00:22:25.508Z,0
2017-09-11T00:23:34.339Z,0
2017-09-11T00:24:43.166Z,0
2017-09-11T00:25:51.994Z,0
2017-09-11T00:27:00.824Z,0
2017-09-11T00:28:09.655Z,0
2017-09-11T00:29:18.487Z,0
2017-09-11T00:30:27.313Z,0
2017-09-11T00:31:36.143Z,0
2017-09-11T00:32:44.971Z,0
2017-09-11T00:33:53.806Z,0
2017-09-11T00:35:02.633Z,0
2017-09-11T00:36:11.466Z,0
2017-09-11T00:37:20.296Z,0
2017-09-11T00:38:29.125Z,0
2017-09-11T00:39:37.966Z,0
2017-09-11T00:40:46.785Z,0
2017-09-11T00:41:55.611Z,0
2017-09-11T00:43:04.437Z,0
2017-09-11T00:44:13.261Z,0
2017-09-11T00:45:22.090Z,0
2017-09-11T00:46:30.915Z,0
2017-09-11T00:47:39.745Z,0
2017-09-11T00:48:48.576Z,0
2017-09-11T00:49:57.402Z,0
2017-09-11T00:51:06.227Z,0
2017-09-11T00:52:15.052Z,0
2017-09-11T00:53:23.887Z,0
2017-09-11T00:54:32.715Z,0
2017-09-11T00:55:41.549Z,0
2017-09-11T00:56:50.372Z,0
2017-09-11T00:57:59.200Z,0
2017-09-11T00:59:08.039Z,0
2017-09-11T01:00:16.865Z,0
2017-09-11T01:01:25.691Z,0
2017-09-11T01:02:34.521Z,0
2017-09-11T01:03:43.349Z,0
2017-09-11T01:04:52.173Z,0
2017-09-11T01:06:01.004Z,0
2017-09-11T01:07:09.836Z,0
2017-09-11T01:08:18.664Z,0
2017-09-11T01:09:27.491Z,0
2017-09-11T01:10:36.314Z,0
2017-09-11T01:11:45.144Z,0
2017-09-11T01:12:53.973Z,0
2017-09-11T01:14:02.801Z,0
2017-09-11T01:15:11.629Z,0
2017-09-11T01:16:20.460Z,0
2017-09-11T01:17:29.290Z,0
2017-09-11T01:18:38.120Z,0
2017-09-11T01:19:46.952Z,0
2017-09-11T01:20:55.782Z,0
2017-09-11T01:22:04.607Z,0
2017-09-11T01:23:13.440Z,0
2017-09-11T01:24:22.268Z,0
2017-09-11T01:25:31.101Z,0
2017-09-11T01:26:39.929Z,0
2017-09-11T01:27:48.757Z,0
2017-09-11T01:28:57.590Z,0
2017-09-11T01:30:06.418Z,0
2017-09-11T01:31:15.247Z,0
2017-09-11T01:32:24.074Z,0
2017-09-11T01:33:32.903Z,0
2017-09-11T01:34:41.732Z,0
2017-09-11T01:35:50.562Z,0
2017-09-11T01:36:59.390Z,0
2017-09-11T01:38:08.222Z,0
2017-09-11T01:39:17.047Z,0
2017-09-11T01:40:25.870Z,0
2017-09-11T01:41:34.702Z,0
2017-09-11T01:42:43.531Z,0
2017-09-11T01:43:52.361Z,0
2017-09-11T01:45:01.190Z,0
2017-09-11T01:46:10.016Z,0
2017-09-11T01:47:18.846Z,0
2017-09-11T01:48:27.679Z,0
2017-09-11T01:49:36.509Z,0
2017-09-11T01:50:45.342Z,0
2017-09-11T01:51:54.165Z,0
2017-09-11T01:53:02.994Z,0
2017-09-11T01:54:11.819Z,0
2017-09-11T01:55:20.979Z,0
2017-09-11T01:56:29.804Z,0
2017-09-11T01:57:38.630Z,0
2017-09-11T01:58:47.465Z,0
2017-09-11T01:59:56.287Z,0
2017-09-11T02:01:05.116Z,0
2017-09-11T02:02:13.947Z,0
2017-09-11T02:03:22.774Z,0
2017-09-11T02:04:31.598Z,0
2017-09-11T02:05:40.425Z,0
2017-09-11T02:06:49.253Z,0
2017-09-11T02:07:58.084Z,0
2017-09-11T02:09:06.914Z,0
2017-09-11T02:10:15.739Z,0
2017-09-11T02:11:24.567Z,0
2017-09-11T02:12:33.396Z,0
2017-09-11T02:13:42.225Z,0
2017-09-11T02:14:51.052Z,0
2017-09-11T02:15:59.881Z,0
2017-09-11T02:17:08.705Z,0
2017-09-11T02:18:17.533Z,0
2017-09-11T02:19:26.362Z,0
2017-09-11T02:20:35.194Z,0
2017-09-11T02:21:44.020Z,0
2017-09-11T02:22:53.173Z,0
2017-09-11T02:24:01.995Z,0
2017-09-11T02:25:10.822Z,0
2017-09-11T02:26:19.654Z,0
2017-09-11T02:27:28.482Z,0
2017-09-11T02:28:37.312Z,0
2017-09-11T02:29:46.136Z,0
2017-09-11T02:30:54.962Z,0
2017-09-11T02:32:03.792Z,0
2017-09-11T02:33:12.623Z,0
2017-09-11T02:34:21.486Z,0
2017-09-11T02:35:30.272Z,0
2017-09-11T02:36:39.104Z,0
2017-09-11T02:37:47.928Z,0
2017-09-11T02:38:56.759Z,0
2017-09-11T02:40:05.586Z,0
2017-09-11T02:41:14.414Z,0
2017-09-11T02:42:23.247Z,0
2017-09-11T02:43:32.074Z,0
2017-09-11T02:44:40.903Z,0
2017-09-11T02:45:49.728Z,0
2017-09-11T02:46:58.560Z,0
2017-09-11T02:48:07.391Z,0
2017-09-11T02:49:16.216Z,0
2017-09-11T02:50:25.043Z,0
2017-09-11T02:51:33.876Z,0
2017-09-11T02:52:42.698Z,0
2017-09-11T02:53:51.525Z,0
2017-09-11T02:55:00.362Z,0
2017-09-11T02:56:09.190Z,0
2017-09-11T02:57:18.013Z,0
2017-09-11T02:58:26.843Z,0
2017-09-11T02:59:35.665Z,0
2017-09-11T03:00:44.499Z,0
2017-09-11T03:01:53.330Z,0
2017-09-11T03:03:02.158Z,0
2017-09-11T03:04:10.988Z,0
2017-09-11T03:05:19.819Z,0
2017-09-11T03:06:28.643Z,0
2017-09-11T03:07:37.475Z,0
2017-09-11T03:08:46.298Z,0
2017-09-11T03:09:55.122Z,0
2017-09-11T03:11:03.951Z,0
2017-09-11T03:12:12.781Z,0
2017-09-11T03:13:21.609Z,0
2017-09-11T03:14:30.437Z,0
2017-09-11T03:15:39.264Z,0
2017-09-11T03:16:48.092Z,0
2017-09-11T03:17:56.918Z,0
2017-09-11T03:19:05.748Z,0
2017-09-11T03:20:14.576Z,0
2017-09-11T03:21:23.404Z,0
2017-09-11T03:22:32.231Z,0
2017-09-11T03:23:41.056Z,0
2017-09-11T03:24:49.884Z,0
2017-09-11T03:25:58.710Z,0
2017-09-11T03:27:07.869Z,0
2017-09-11T03:28:17.009Z,0
2017-09-11T03:29:25.842Z,0
2017-09-11T03:30:34.672Z,0
2017-09-11T03:31:43.498Z,0
2017-09-11T03:32:52.324Z,0
2017-09-11T03:34:01.152Z,0
2017-09-11T03:35:09.975Z,0
2017-09-11T03:36:18.806Z,0
2017-09-11T03:37:27.633Z,0
2017-09-11T03:38:36.457Z,0
2017-09-11T03:39:45.290Z,0
2017-09-11T03:40:54.113Z,0
2017-09-11T03:42:02.940Z,0
2017-09-11T03:43:11.767Z,0
2017-09-11T03:44:20.595Z,0
2017-09-11T03:45:29.425Z,0
2017-09-11T03:46:38.253Z,0
2017-09-11T03:47:47.078Z,0
2017-09-11T03:48:55.899Z,0
2017-09-11T03:50:04.729Z,0
2017-09-11T03:51:13.558Z,0
2017-09-11T03:52:22.382Z,0
2017-09-11T03:53:31.209Z,0
2017-09-11T03:54:40.035Z,0
2017-09-11T03:55:48.866Z,0
2017-09-11T03:56:57.696Z,0
2017-09-11T03:58:06.847Z,0
2017-09-11T03:59:15.674Z,0
2017-09-11T04:00:24.503Z,0
2017-09-11T04:01:33.395Z,0
2017-09-11T04:02:42.539Z,0
2017-09-11T04:03:51.362Z,0
2017-09-11T04:05:00.192Z,0
2017-09-11T04:06:09.020Z,0
2017-09-11T04:07:17.853Z,0
2017-09-11T04:08:26.675Z,0
2017-09-11T04:09:35.504Z,0
2017-09-11T04:10:44.331Z,0
2017-09-11T04:11:53.160Z,0
2017-09-11T04:13:01.986Z,0
2017-09-11T04:14:10.815Z,0
2017-09-11T04:15:19.644Z,0
2017-09-11T04:16:28.471Z,0
2017-09-11T04:17:37.301Z,0
2017-09-11T04:18:46.127Z,0
2017-09-11T04:19:54.956Z,0
2017-09-11T04:21:03.779Z,0
2017-09-11T04:22:12.609Z,0
2017-09-11T04:23:21.437Z,0
2017-09-11T04:24:30.261Z,0
2017-09-11T04:25:39.090Z,0
2017-09-11T04:26:47.918Z,0
2017-09-11T04:27:56.746Z,0
2017-09-11T04:29:05.576Z,0
2017-09-11T04:30:14.406Z,0
2017-09-11T04:31:23.233Z,0
2017-09-11T04:32:32.384Z,0
2017-09-11T04:33:41.245Z,0
2017-09-11T04:34:50.398Z,0
2017-09-11T04:35:59.230Z,0
2017-09-11T04:37:08.054Z,0
2017-09-11T04:38:16.880Z,0
2017-09-11T04:39:26.030Z,0
2017-09-11T04:40:34.855Z,0
2017-09-11T04:41:43.681Z,0
2017-09-11T04:42:52.510Z,0
2017-09-11T04:44:01.340Z,0
2017-09-11T04:45:10.169Z,0
2017-09-11T04:46:18.999Z,0
2017-09-11T04:47:27.825Z,0
2017-09-11T04:48:36.656Z,0
2017-09-11T04:49:45.480Z,0
2017-09-11T04:50:54.314Z,0
2017-09-11T04:52:03.145Z,0
2017-09-11T04:53:11.968Z,0
2017-09-11T04:54:20.799Z,0
2017-09-11T04:55:29.627Z,0
2017-09-11T04:56:38.458Z,0
2017-09-11T04:57:47.296Z,0
2017-09-11T04:58:56.110Z,5
2017-09-11T05:00:04.936Z,5
2017-09-11T05:01:13.763Z,5
2017-09-11T05:02:22.915Z,5
2017-09-11T05:03:31.740Z,5
2017-09-11T05:04:40.570Z,5
2017-09-11T05:05:49.393Z,5
2017-09-11T05:06:58.220Z,5
2017-09-11T05:08:07.045Z,5
2017-09-11T05:09:15.871Z,5
2017-09-11T05:10:24.697Z,5
2017-09-11T05:11:33.526Z,5
2017-09-11T05:12:42.359Z,5
2017-09-11T05:13:51.183Z,5
2017-09-11T05:15:00.010Z,5
2017-09-11T05:16:08.839Z,5
2017-09-11T05:17:17.664Z,5
2017-09-11T05:18:26.487Z,5
2017-09-11T05:19:35.322Z,5
2017-09-11T05:20:44.150Z,5
2017-09-11T05:21:52.972Z,5
2017-09-11T05:23:01.802Z,10
2017-09-11T05:24:10.635Z,10
2017-09-11T05:25:19.459Z,10
2017-09-11T05:26:28.286Z,10
2017-09-11T05:27:37.113Z,10
2017-09-11T05:28:45.942Z,10
2017-09-11T05:29:54.772Z,10
2017-09-11T05:31:03.602Z,15
2017-09-11T05:32:12.754Z,10
2017-09-11T05:33:21.585Z,15
2017-09-11T05:34:30.407Z,15
2017-09-11T05:35:39.233Z,15
2017-09-11T05:36:48.062Z,15
2017-09-11T05:37:56.894Z,15
2017-09-11T05:39:05.723Z,15
2017-09-11T05:40:14.550Z,15
2017-09-11T05:41:23.377Z,15
2017-09-11T05:42:32.200Z,15
2017-09-11T05:43:41.032Z,15
2017-09-11T05:44:49.858Z,15
2017-09-11T05:45:58.687Z,15
2017-09-11T05:47:07.513Z,15
2017-09-11T05:48:16.341Z,15
2017-09-11T05:49:25.169Z,20
2017-09-11T05:50:33.998Z,20
2017-09-11T05:51:43.156Z,20
2017-09-11T05:52:51.980Z,20
2017-09-11T05:54:00.802Z,20
2017-09-11T05:55:09.635Z,20
2017-09-11T05:56:18.465Z,20
2017-09-11T05:57:27.294Z,20
2017-09-11T05:58:36.121Z,20
2017-09-11T05:59:44.948Z,25
2017-09-11T06:00:53.776Z,25
2017-09-11T06:02:02.608Z,25
2017-09-11T06:03:11.752Z,25
2017-09-11T06:04:20.583Z,25
2017-09-11T06:05:29.412Z,30
2017-09-11T06:06:38.238Z,30
2017-09-11T06:07:47.070Z,30
2017-09-11T06:08:55.896Z,30
2017-09-11T06:10:04.724Z,30
2017-09-11T06:11:13.549Z,30
2017-09-11T06:12:22.383Z,30
2017-09-11T06:13:31.210Z,35
2017-09-11T06:14:40.039Z,35
2017-09-11T06:15:48.866Z,35
2017-09-11T06:16:57.694Z,35
2017-09-11T06:18:06.524Z,35
2017-09-11T06:19:15.358Z,35
2017-09-11T06:20:24.188Z,35
2017-09-11T06:21:33.012Z,35
2017-09-11T06:22:41.844Z,30
2017-09-11T06:23:50.672Z,35
2017-09-11T06:24:59.505Z,40
2017-09-11T06:26:08.336Z,35
2017-09-11T06:27:17.160Z,40
2017-09-11T06:28:25.989Z,40
2017-09-11T06:29:34.816Z,40
2017-09-11T06:30:43.647Z,40
2017-09-11T06:31:52.476Z,40
2017-09-11T06:33:01.303Z,40
2017-09-11T06:34:10.131Z,35
2017-09-11T06:35:18.959Z,35
2017-09-11T06:36:27.788Z,35
2017-09-11T06:37:36.621Z,35
2017-09-11T06:38:45.446Z,35
2017-09-11T06:39:54.272Z,40
2017-09-11T06:41:03.105Z,40
2017-09-11T06:42:11.931Z,40
2017-09-11T06:43:20.755Z,40
2017-09-11T06:44:29.586Z,40
2017-09-11T06:45:38.413Z,40
2017-09-11T06:46:47.241Z,40
2017-09-11T06:47:56.067Z,40
2017-09-11T06:49:04.894Z,40
2017-09-11T06:50:13.722Z,40
2017-09-11T06:51:22.546Z,45
2017-09-11T06:52:31.379Z,40
2017-09-11T06:53:40.207Z,45
2017-09-11T06:54:49.037Z,50
2017-09-11T06:55:57.868Z,45
2017-09-11T06:57:06.697Z,40
2017-09-11T06:58:15.527Z,45
2017-09-11T06:59:24.352Z,45
2017-09-11T07:00:33.181Z,45
2017-09-11T07:01:42.331Z,40
2017-09-11T07:02:51.163Z,40
2017-09-11T07:03:59.990Z,40
2017-09-11T07:05:08.815Z,35
2017-09-11T07:06:17.648Z,35
2017-09-11T07:07:26.473Z,35
2017-09-11T07:08:35.302Z,35
2017-09-11T07:09:44.135Z,40
2017-09-11T07:10:52.968Z,35
2017-09-11T07:12:01.793Z,35
2017-09-11T07:13:10.624Z,35
2017-09-11T07:14:19.459Z,35
2017-09-11T07:15:28.287Z,35
2017-09-11T07:16:37.438Z,35
2017-09-11T07:17:46.263Z,30
2017-09-11T07:18:55.094Z,30
2017-09-11T07:20:03.926Z,35
2017-09-11T07:21:12.753Z,35
2017-09-11T07:22:21.589Z,40
2017-09-11T07:23:30.416Z,40
2017-09-11T07:24:39.571Z,45
2017-09-11T07:25:48.405Z,45
2017-09-11T07:26:57.240Z,45
2017-09-11T07:28:06.070Z,45
2017-09-11T07:29:14.899Z,45
2017-09-11T07:30:23.731Z,40
2017-09-11T07:31:32.564Z,40
2017-09-11T07:32:41.396Z,40
2017-09-11T07:33:50.227Z,35
2017-09-11T07:34:59.060Z,40
2017-09-11T07:36:07.889Z,45
2017-09-11T07:37:16.719Z,45
2017-09-11T07:38:25.541Z,50
2017-09-11T07:39:34.373Z,50
2017-09-11T07:40:43.208Z,50
2017-09-11T07:41:52.043Z,55
2017-09-11T07:43:00.866Z,50
2017-09-11T07:44:09.692Z,50
2017-09-11T07:45:18.522Z,50
2017-09-11T07:46:27.353Z,45
2017-09-11T07:47:36.187Z,45
2017-09-11T07:48:45.015Z,45
2017-09-11T07:49:54.164Z,45
2017-09-11T07:51:02.995Z,50
2017-09-11T07:52:11.828Z,45
2017-09-11T07:53:20.658Z,45
2017-09-11T07:54:29.484Z,45
2017-09-11T07:55:38.315Z,50
2017-09-11T07:56:47.144Z,60
2017-09-11T07:57:55.976Z,55
2017-09-11T07:59:04.806Z,60
2017-09-11T08:00:13.635Z,65
2017-09-11T08:01:22.468Z,55
2017-09-11T08:02:31.297Z,60
2017-09-11T08:03:40.127Z,65
2017-09-11T08:04:48.956Z,60
2017-09-11T08:05:58.111Z,60
2017-09-11T08:07:06.937Z,55
2017-09-11T08:08:15.771Z,50
2017-09-11T08:09:24.606Z,50
2017-09-11T08:10:33.435Z,55
2017-09-11T08:11:42.262Z,55
2017-09-11T08:12:51.090Z,60
2017-09-11T08:13:59.917Z,60
2017-09-11T08:15:08.748Z,55
2017-09-11T08:16:17.580Z,55
2017-09-11T08:17:26.408Z,60
2017-09-11T08:18:35.234Z,75
2017-09-11T08:19:44.065Z,70
2017-09-11T08:20:52.897Z,70
2017-09-11T08:22:01.729Z,75
2017-09-11T08:23:10.559Z,70
2017-09-11T08:24:19.382Z,75
2017-09-11T08:25:28.209Z,65
2017-09-11T08:26:37.044Z,65
2017-09-11T08:27:45.875Z,60
2017-09-11T08:28:54.708Z,60
2017-09-11T08:30:03.533Z,60
2017-09-11T08:31:12.361Z,55
2017-09-11T08:32:21.196Z,55
2017-09-11T08:33:30.019Z,55
2017-09-11T08:34:38.850Z,55
2017-09-11T08:35:47.683Z,55
2017-09-11T08:36:56.514Z,55
2017-09-11T08:38:05.345Z,50
2017-09-11T08:39:14.171Z,50
2017-09-11T08:40:23.002Z,50
2017-09-11T08:41:31.829Z,45
2017-09-11T08:42:40.665Z,50
2017-09-11T08:43:49.490Z,50
2017-09-11T08:44:58.320Z,50
2017-09-11T08:46:07.154Z,55
2017-09-11T08:47:15.983Z,60
2017-09-11T08:48:24.813Z,65
2017-09-11T08:49:33.643Z,65
2017-09-11T08:50:42.473Z,60
2017-09-11T08:51:51.304Z,55
2017-09-11T08:53:00.137Z,55
2017-09-11T08:54:08.967Z,50
2017-09-11T08:55:17.796Z,50
2017-09-11T08:56:26.949Z,50
2017-09-11T08:57:35.780Z,50
2017-09-11T08:58:44.611Z,50
2017-09-11T08:59:53.442Z,45
2017-09-11T09:01:02.269Z,50
2017-09-11T09:02:11.097Z,50
2017-09-11T09:03:19.931Z,55
2017-09-11T09:04:28.767Z,45
2017-09-11T09:05:37.592Z,55
2017-09-11T09:06:46.421Z,50
2017-09-11T09:07:55.246Z,55
2017-09-11T09:09:04.077Z,55
2017-09-11T09:10:12.905Z,55
2017-09-11T09:11:21.740Z,55
2017-09-11T09:12:30.567Z,55
2017-09-11T09:13:39.398Z,60
2017-09-11T09:14:48.229Z,60
2017-09-11T09:15:57.062Z,60
2017-09-11T09:17:05.899Z,65
2017-09-11T09:18:14.726Z,60
2017-09-11T09:19:23.554Z,60
2017-09-11T09:20:32.384Z,60
2017-09-11T09:21:41.213Z,60
2017-09-11T09:22:50.046Z,60
2017-09-11T09:23:58.879Z,60
2017-09-11T09:25:07.713Z,75
2017-09-11T09:26:16.539Z,70
2017-09-11T09:27:25.379Z,65
2017-09-11T09:28:34.205Z,65
2017-09-11T09:29:43.033Z,65
2017-09-11T09:30:51.865Z,65
2017-09-11T09:32:00.703Z,60
2017-09-11T09:33:09.532Z,60
2017-09-11T09:34:18.358Z,55
2017-09-11T09:35:27.190Z,55
2017-09-11T09:36:36.022Z,60
2017-09-11T09:37:44.855Z,65
2017-09-11T09:38:53.685Z,60
2017-09-11T09:40:02.514Z,65
2017-09-11T09:41:11.347Z,60
2017-09-11T09:42:20.182Z,50
2017-09-11T09:43:29.013Z,50
2017-09-11T09:44:37.850Z,60
2017-09-11T09:45:46.677Z,60
2017-09-11T09:46:55.505Z,60
2017-09-11T09:48:04.337Z,45
2017-09-11T09:49:13.168Z,50
2017-09-11T09:50:21.999Z,45
2017-09-11T09:51:30.829Z,45
2017-09-11T09:52:39.659Z,40
2017-09-11T09:53:48.492Z,40
2017-09-11T09:54:57.325Z,50
2017-09-11T09:56:06.149Z,55
2017-09-11T09:57:14.978Z,50
2017-09-11T09:58:23.809Z,50
2017-09-11T09:59:32.637Z,40
2017-09-11T10:00:41.471Z,40
2017-09-11T10:01:50.298Z,50
2017-09-11T10:02:59.129Z,50
2017-09-11T10:04:07.958Z,50
2017-09-11T10:05:16.790Z,45
2017-09-11T10:06:25.625Z,55
2017-09-11T10:07:34.455Z,60
2017-09-11T10:08:43.285Z,60
2017-09-11T10:09:52.114Z,60
2017-09-11T10:11:00.949Z,55
2017-09-11T10:12:09.780Z,55
2017-09-11T10:13:18.616Z,60
2017-09-11T10:14:27.767Z,60
2017-09-11T10:15:36.594Z,65
2017-09-11T10:16:45.433Z,70
2017-09-11T10:17:54.270Z,65
2017-09-11T10:19:03.099Z,65
2017-09-11T10:20:11.930Z,50
2017-09-11T10:21:20.762Z,50
2017-09-11T10:22:29.591Z,45
2017-09-11T10:23:38.746Z,45
2017-09-11T10:24:47.577Z,55
2017-09-11T10:25:56.406Z,65
2017-09-11T10:27:05.239Z,70
2017-09-11T10:28:14.065Z,65
2017-09-11T10:29:22.898Z,75
2017-09-11T10:30:31.726Z,75
2017-09-11T10:31:40.562Z,85
2017-09-11T10:32:49.393Z,85
2017-09-11T10:33:58.230Z,85
2017-09-11T10:35:07.056Z,90
2017-09-11T10:36:15.886Z,85
2017-09-11T10:37:24.751Z,95
2017-09-11T10:38:33.557Z,65
2017-09-11T10:39:42.393Z,80
2017-09-11T10:40:51.222Z,85
2017-09-11T10:42:00.054Z,95
2017-09-11T10:43:08.884Z,90
2017-09-11T10:44:17.718Z,85
2017-09-11T10:45:26.554Z,80
2017-09-11T10:46:35.381Z,80
2017-09-11T10:47:44.215Z,85
2017-09-11T10:48:53.048Z,85
2017-09-11T10:50:01.882Z,85
2017-09-11T10:51:10.720Z,75
2017-09-11T10:52:19.876Z,70
2017-09-11T10:53:29.026Z,75
2017-09-11T10:54:37.853Z,75
2017-09-11T10:55:46.687Z,70
2017-09-11T10:56:55.517Z,70
2017-09-11T10:58:04.351Z,75
2017-09-11T10:59:13.184Z,85
2017-09-11T11:00:22.014Z,80
2017-09-11T11:01:30.846Z,75
2017-09-11T11:02:39.679Z,85
2017-09-11T11:03:48.511Z,70
2017-09-11T11:04:57.346Z,85
2017-09-11T11:06:06.178Z,85
2017-09-11T11:07:15.010Z,80
2017-09-11T11:08:23.846Z,85
2017-09-11T11:09:32.680Z,80
2017-09-11T11:10:41.511Z,80
2017-09-11T11:11:50.344Z,75
2017-09-11T11:12:59.182Z,75
2017-09-11T11:14:08.011Z,65
2017-09-11T11:15:16.846Z,70
2017-09-11T11:16:25.676Z,65
2017-09-11T11:17:34.511Z,70
2017-09-11T11:18:43.338Z,75
2017-09-11T11:19:52.499Z,85
2017-09-11T11:21:01.328Z,75
2017-09-11T11:22:10.156Z,80
2017-09-11T11:23:18.988Z,85
2017-09-11T11:24:27.816Z,75
2017-09-11T11:25:36.647Z,70
2017-09-11T11:26:45.479Z,65
2017-09-11T11:27:54.310Z,60
2017-09-11T11:29:03.142Z,75
2017-09-11T11:30:11.969Z,75
2017-09-11T11:31:20.807Z,80
2017-09-11T11:32:29.958Z,90
2017-09-11T11:33:38.796Z,95
2017-09-11T11:34:47.627Z,80
2017-09-11T11:35:56.452Z,70
2017-09-11T11:37:05.287Z,65
2017-09-11T11:38:14.119Z,60
2017-09-11T11:39:22.952Z,55
2017-09-11T11:40:31.782Z,50
2017-09-11T11:41:40.617Z,50
2017-09-11T11:42:49.446Z,50
2017-09-11T11:43:58.280Z,50
2017-09-11T11:45:07.118Z,50
2017-09-11T11:46:15.950Z,50
2017-09-11T11:47:24.784Z,50
2017-09-11T11:48:33.612Z,55
2017-09-11T11:49:42.439Z,60
2017-09-11T11:50:51.271Z,60
2017-09-11T11:52:00.106Z,65
2017-09-11T11:53:08.935Z,65
2017-09-11T11:54:17.769Z,75
2017-09-11T11:55:26.601Z,60
2017-09-11T11:56:35.430Z,60
2017-09-11T11:57:44.264Z,65
2017-09-11T11:58:53.100Z,65
2017-09-11T12:00:01.929Z,60
2017-09-11T12:01:10.757Z,65
2017-09-11T12:02:19.592Z,70
2017-09-11T12:03:28.427Z,65
2017-09-11T12:04:37.261Z,65
2017-09-11T12:05:46.093Z,60
2017-09-11T12:06:54.927Z,60
2017-09-11T12:08:03.758Z,60
2017-09-11T12:09:12.912Z,60
2017-09-11T12:10:21.742Z,65
2017-09-11T12:11:30.575Z,60
2017-09-11T12:12:39.408Z,55
2017-09-11T12:13:48.233Z,60
2017-09-11T12:14:57.067Z,60
2017-09-11T12:16:05.903Z,60
2017-09-11T12:17:14.737Z,60
2017-09-11T12:18:23.569Z,60
2017-09-11T12:19:32.727Z,60
2017-09-11T12:20:41.559Z,65
2017-09-11T12:21:50.393Z,60
2017-09-11T12:22:59.226Z,60
2017-09-11T12:24:08.056Z,65
2017-09-11T12:25:16.892Z,55
2017-09-11T12:26:25.726Z,60
2017-09-11T12:27:34.564Z,55
2017-09-11T12:28:43.400Z,55
2017-09-11T12:29:52.233Z,50
2017-09-11T12:31:01.389Z,45
2017-09-11T12:32:10.224Z,45
2017-09-11T12:33:19.054Z,45
2017-09-11T12:34:27.891Z,45
2017-09-11T12:35:36.720Z,45
2017-09-11T12:36:45.557Z,45
2017-09-11T12:37:54.386Z,45
2017-09-11T12:39:03.223Z,50
2017-09-11T12:40:12.049Z,50
2017-09-11T12:41:20.882Z,50
2017-09-11T12:42:29.721Z,50
2017-09-11T12:43:38.546Z,50
2017-09-11T12:44:47.374Z,45
2017-09-11T12:45:56.212Z,50
2017-09-11T12:47:05.365Z,50
2017-09-11T12:48:14.196Z,50
2017-09-11T12:49:23.031Z,50
2017-09-11T12:50:31.859Z,50
2017-09-11T12:51:40.687Z,50
2017-09-11T12:52:49.521Z,55
2017-09-11T12:53:58.351Z,55
2017-09-11T12:55:07.189Z,50
2017-09-11T12:56:16.019Z,50
2017-09-11T12:57:24.848Z,50
2017-09-11T12:58:33.683Z,60
2017-09-11T12:59:42.520Z,50
2017-09-11T13:00:51.347Z,50
2017-09-11T13:02:00.179Z,50
2017-09-11T13:03:09.011Z,50
2017-09-11T13:04:17.838Z,50
2017-09-11T13:05:26.670Z,50
2017-09-11T13:06:35.508Z,50
2017-09-11T13:07:44.336Z,50
2017-09-11T13:08:53.171Z,55
2017-09-11T13:10:02.000Z,55
2017-09-11T13:11:10.832Z,55
2017-09-11T13:12:19.666Z,50
2017-09-11T13:13:28.498Z,45
2017-09-11T13:14:37.328Z,50
2017-09-11T13:15:46.478Z,50
2017-09-11T13:16:55.309Z,50
2017-09-11T13:18:04.140Z,60
2017-09-11T13:19:12.974Z,60
2017-09-11T13:20:21.805Z,65
2017-09-11T13:21:30.636Z,65
2017-09-11T13:22:39.471Z,65
2017-09-11T13:23:48.305Z,60
2017-09-11T13:24:57.137Z,60
2017-09-11T13:26:05.966Z,60
2017-09-11T13:27:14.802Z,55
2017-09-11T13:28:23.635Z,60
2017-09-11T13:29:32.467Z,70
2017-09-11T13:30:41.297Z,75
2017-09-11T13:31:50.132Z,75
2017-09-11T13:32:58.960Z,60
2017-09-11T13:34:07.800Z,55
2017-09-11T13:35:16.628Z,55
2017-09-11T13:36:25.783Z,50
2017-09-11T13:37:34.609Z,45
2017-09-11T13:38:43.442Z,60
2017-09-11T13:39:52.275Z,70
2017-09-11T13:41:01.105Z,60
2017-09-11T13:42:09.938Z,50
2017-09-11T13:43:18.769Z,60
2017-09-11T13:44:27.606Z,65
2017-09-11T13:45:36.436Z,65
2017-09-11T13:46:45.269Z,65
2017-09-11T13:47:54.107Z,65
2017-09-11T13:49:02.939Z,65
2017-09-11T13:50:11.773Z,60
2017-09-11T13:51:20.604Z,65
2017-09-11T13:52:29.440Z,60
2017-09-11T13:53:38.266Z,60
2017-09-11T13:54:47.101Z,60
2017-09-11T13:55:55.933Z,30
2017-09-11T13:57:04.765Z,35
2017-09-11T13:58:13.596Z,50
2017-09-11T13:59:22.428Z,30
2017-09-11T14:00:31.256Z,30
2017-09-11T14:01:40.095Z,30
2017-09-11T14:02:48.927Z,30
2017-09-11T14:03:57.758Z,40
2017-09-11T14:05:06.586Z,40
2017-09-11T14:06:15.420Z,50
2017-09-11T14:07:24.585Z,70
2017-09-11T14:08:33.418Z,60
2017-09-11T14:09:42.249Z,55
2017-09-11T14:10:51.075Z,50
2017-09-11T14:11:59.906Z,45
2017-09-11T14:13:08.739Z,45
2017-09-11T14:14:17.575Z,45
2017-09-11T14:15:26.405Z,40
2017-09-11T14:16:35.237Z,45
2017-09-11T14:17:44.072Z,45
2017-09-11T14:18:52.899Z,45
2017-09-11T14:20:01.738Z,50
2017-09-11T14:21:10.563Z,45
2017-09-11T14:22:19.401Z,45
2017-09-11T14:23:28.230Z,40
2017-09-11T14:24:37.058Z,40
2017-09-11T14:25:45.895Z,45
2017-09-11T14:26:54.719Z,45
2017-09-11T14:28:03.553Z,45
2017-09-11T14:29:12.384Z,50
2017-09-11T14:30:21.219Z,45
2017-09-11T14:31:30.052Z,45
2017-09-11T14:32:38.883Z,45
2017-09-11T14:33:47.716Z,40
2017-09-11T14:34:56.547Z,40
2017-09-11T14:36:05.377Z,40
2017-09-11T14:37:14.211Z,45
2017-09-11T14:38:23.043Z,45
2017-09-11T14:39:31.875Z,45
2017-09-11T14:40:40.706Z,40
2017-09-11T14:41:49.537Z,40
2017-09-11T14:42:58.364Z,40
2017-09-11T14:44:07.521Z,30
2017-09-11T14:45:16.349Z,35
2017-09-11T14:46:25.185Z,35
2017-09-11T14:47:34.011Z,40
2017-09-11T14:48:42.841Z,40
2017-09-11T14:49:51.678Z,40
2017-09-11T14:51:00.510Z,40
2017-09-11T14:52:09.338Z,40
2017-09-11T14:53:18.174Z,40
2017-09-11T14:54:27.008Z,40
2017-09-11T14:55:35.841Z,40
2017-09-11T14:56:44.670Z,40
2017-09-11T14:57:53.502Z,35
2017-09-11T14:59:02.329Z,35
2017-09-11T15:00:11.167Z,35
2017-09-11T15:01:19.996Z,35
2017-09-11T15:02:28.825Z,35
2017-09-11T15:03:37.661Z,35
2017-09-11T15:04:46.494Z,35
2017-09-11T15:05:55.322Z,35
2017-09-11T15:07:04.157Z,30
2017-09-11T15:08:12.987Z,35
2017-09-11T15:09:21.811Z,35
2017-09-11T15:10:30.645Z,35
2017-09-11T15:11:39.481Z,35
2017-09-11T15:12:48.313Z,35
2017-09-11T15:13:57.150Z,30
2017-09-11T15:15:06.297Z,30
2017-09-11T15:16:15.129Z,25
2017-09-11T15:17:23.964Z,20
2017-09-11T15:18:32.796Z,20
2017-09-11T15:19:41.627Z,20
2017-09-11T15:20:50.462Z,15
2017-09-11T15:21:59.298Z,15
2017-09-11T15:23:08.127Z,15
2017-09-11T15:24:16.960Z,15
2017-09-11T15:25:25.797Z,15
2017-09-11T15:26:34.625Z,15
2017-09-11T15:27:43.466Z,15
2017-09-11T15:28:52.296Z,15
2017-09-11T15:30:01.126Z,15
2017-09-11T15:31:09.959Z,15
2017-09-11T15:32:19.122Z,10
2017-09-11T15:33:27.953Z,10
2017-09-11T15:34:36.786Z,15
2017-09-11T15:35:45.615Z,15
2017-09-11T15:36:54.447Z,10
2017-09-11T15:38:03.280Z,15
2017-09-11T15:39:12.120Z,10
2017-09-11T15:40:21.268Z,10
2017-09-11T15:41:30.099Z,10
2017-09-11T15:42:38.929Z,10
2017-09-11T15:43:47.766Z,10
2017-09-11T15:44:56.600Z,10
2017-09-11T15:46:05.438Z,15
2017-09-11T15:47:14.260Z,20
2017-09-11T15:48:23.089Z,20
2017-09-11T15:49:31.923Z,20
2017-09-11T15:50:40.754Z,20
2017-09-11T15:51:49.587Z,20
2017-09-11T15:52:58.422Z,20
2017-09-11T15:54:07.247Z,20
2017-09-11T15:55:16.082Z,20
2017-09-11T15:56:24.914Z,20
2017-09-11T15:57:33.750Z,20
2017-09-11T15:58:42.579Z,25
2017-09-11T15:59:51.410Z,20
2017-09-11T16:01:00.242Z,20
2017-09-11T16:02:09.071Z,15
2017-09-11T16:03:18.237Z,10
2017-09-11T16:04:27.117Z,10
2017-09-11T16:05:35.946Z,10
2017-09-11T16:06:44.780Z,5
2017-09-11T16:07:53.612Z,5
2017-09-11T16:09:02.443Z,10
2017-09-11T16:10:11.275Z,10
2017-09-11T16:11:20.104Z,10
2017-09-11T16:12:28.934Z,10
2017-09-11T16:13:37.770Z,10
2017-09-11T16:14:46.603Z,10
2017-09-11T16:15:55.435Z,10
2017-09-11T16:17:04.262Z,10
2017-09-11T16:18:13.091Z,10
2017-09-11T16:19:22.252Z,5
2017-09-11T16:20:31.086Z,5
2017-09-11T16:21:39.916Z,5
2017-09-11T16:22:48.749Z,10
2017-09-11T16:23:57.579Z,10
2017-09-11T16:25:06.409Z,10
2017-09-11T16:26:15.240Z,10
2017-09-11T16:27:24.069Z,10
2017-09-11T16:28:32.905Z,10
2017-09-11T16:29:41.740Z,10
2017-09-11T16:30:50.570Z,10
2017-09-11T16:31:59.398Z,5
2017-09-11T16:33:08.233Z,10